sensor_id;sensor_type;location;lat;lon;timestamp;temperature;humidity
22430;DHT22;11382;48.086;11.632;2023-07-20T00:00:04;20.10;99.90
22430;DHT22;11382;48.086;11.632;2023-07-20T00:02:57;20.10;99.90
22430;DHT22;11382;48.086;11.632;2023-07-20T00:05:37;20.30;99.90
22430;DHT22;11382;48.086;11.632;2023-07-20T00:08:05;20.40;99.90
22430;DHT22;11382;48.086;11.632;2023-07-20T00:10:35;20.40;99.90
22430;DHT22;11382;48.086;11.632;2023-07-20T00:13:03;20.40;99.90
22430;DHT22;11382;48.086;11.632;2023-07-20T00:15:31;20.40;99.90
22430;DHT22;11382;48.086;11.632;2023-07-20T00:17:59;20.30;99.90
22430;DHT22;11382;48.086;11.632;2023-07-20T00:20:27;20.40;99.90
22430;DHT22;11382;48.086;11.632;2023-07-20T00:22:55;20.20;99.90
22430;DHT22;11382;48.086;11.632;2023-07-20T00:25:24;20.20;99.90
22430;DHT22;11382;48.086;11.632;2023-07-20T00:27:53;20.20;99.90
22430;DHT22;11382;48.086;11.632;2023-07-20T00:30:22;20.10;99.90
22430;DHT22;11382;48.086;11.632;2023-07-20T00:32:50;20.10;99.90
22430;DHT22;11382;48.086;11.632;2023-07-20T00:35:18;20.00;99.90
22430;DHT22;11382;48.086;11.632;2023-07-20T00:37:46;20.00;99.90
22430;DHT22;11382;48.086;11.632;2023-07-20T00:40:14;20.00;99.90
22430;DHT22;11382;48.086;11.632;2023-07-20T00:42:44;20.00;99.90
22430;DHT22;11382;48.086;11.632;2023-07-20T00:45:14;20.00;99.90
22430;DHT22;11382;48.086;11.632;2023-07-20T00:47:42;19.90;99.90
22430;DHT22;11382;48.086;11.632;2023-07-20T00:50:10;19.90;99.90
22430;DHT22;11382;48.086;11.632;2023-07-20T00:52:39;19.90;99.90
22430;DHT22;11382;48.086;11.632;2023-07-20T00:55:09;19.90;99.90
22430;DHT22;11382;48.086;11.632;2023-07-20T00:57:38;19.90;99.90
22430;DHT22;11382;48.086;11.632;2023-07-20T01:00:07;20.00;99.90
22430;DHT22;11382;48.086;11.632;2023-07-20T01:02:37;20.00;99.90
22430;DHT22;11382;48.086;11.632;2023-07-20T01:05:09;19.90;99.90
22430;DHT22;11382;48.086;11.632;2023-07-20T01:07:46;19.90;99.90
22430;DHT22;11382;48.086;11.632;2023-07-20T01:10:25;19.90;99.90
22430;DHT22;11382;48.086;11.632;2023-07-20T01:12:55;19.90;99.90
22430;DHT22;11382;48.086;11.632;2023-07-20T01:15:23;19.90;99.90
22430;DHT22;11382;48.086;11.632;2023-07-20T01:17:52;20.00;99.90
22430;DHT22;11382;48.086;11.632;2023-07-20T01:20:21;19.90;99.90
22430;DHT22;11382;48.086;11.632;2023-07-20T01:23:25;19.90;99.90
22430;DHT22;11382;48.086;11.632;2023-07-20T01:26:10;19.80;99.90
22430;DHT22;11382;48.086;11.632;2023-07-20T01:31:41;19.80;99.90
22430;DHT22;11382;48.086;11.632;2023-07-20T01:34:12;19.80;99.90
22430;DHT22;11382;48.086;11.632;2023-07-20T01:36:44;19.80;99.90
22430;DHT22;11382;48.086;11.632;2023-07-20T01:39:13;19.80;99.90
22430;DHT22;11382;48.086;11.632;2023-07-20T01:41:41;19.70;99.90
22430;DHT22;11382;48.086;11.632;2023-07-20T01:44:10;19.70;99.90
22430;DHT22;11382;48.086;11.632;2023-07-20T01:46:40;19.70;99.90
22430;DHT22;11382;48.086;11.632;2023-07-20T01:49:08;19.70;99.90
22430;DHT22;11382;48.086;11.632;2023-07-20T01:51:36;19.70;99.90
22430;DHT22;11382;48.086;11.632;2023-07-20T01:54:04;19.60;99.90
22430;DHT22;11382;48.086;11.632;2023-07-20T01:56:32;19.60;99.90
22430;DHT22;11382;48.086;11.632;2023-07-20T01:59:00;19.60;99.90
22430;DHT22;11382;48.086;11.632;2023-07-20T02:01:28;19.60;99.90
22430;DHT22;11382;48.086;11.632;2023-07-20T02:03:57;19.60;99.90
22430;DHT22;11382;48.086;11.632;2023-07-20T02:06:25;19.50;99.90
22430;DHT22;11382;48.086;11.632;2023-07-20T02:08:53;19.50;99.90
22430;DHT22;11382;48.086;11.632;2023-07-20T02:11:22;19.50;99.90
22430;DHT22;11382;48.086;11.632;2023-07-20T02:13:50;19.50;99.90
22430;DHT22;11382;48.086;11.632;2023-07-20T02:16:18;19.50;99.90
22430;DHT22;11382;48.086;11.632;2023-07-20T02:18:46;19.50;99.90
22430;DHT22;11382;48.086;11.632;2023-07-20T02:21:16;19.50;99.90
22430;DHT22;11382;48.086;11.632;2023-07-20T02:23:44;19.60;99.90
22430;DHT22;11382;48.086;11.632;2023-07-20T02:26:12;19.60;99.90
22430;DHT22;11382;48.086;11.632;2023-07-20T02:28:40;19.50;99.90
22430;DHT22;11382;48.086;11.632;2023-07-20T02:31:08;19.50;99.90
22430;DHT22;11382;48.086;11.632;2023-07-20T02:33:36;19.50;99.90
22430;DHT22;11382;48.086;11.632;2023-07-20T02:36:04;19.50;99.90
22430;DHT22;11382;48.086;11.632;2023-07-20T02:38:33;19.50;99.90
22430;DHT22;11382;48.086;11.632;2023-07-20T02:41:01;19.60;99.90
22430;DHT22;11382;48.086;11.632;2023-07-20T02:43:29;19.60;99.90
22430;DHT22;11382;48.086;11.632;2023-07-20T02:45:57;19.50;99.90
22430;DHT22;11382;48.086;11.632;2023-07-20T02:48:25;19.40;99.90
22430;DHT22;11382;48.086;11.632;2023-07-20T02:50:53;19.50;99.90
22430;DHT22;11382;48.086;11.632;2023-07-20T02:53:21;19.50;99.90
22430;DHT22;11382;48.086;11.632;2023-07-20T02:55:51;19.40;99.90
22430;DHT22;11382;48.086;11.632;2023-07-20T02:58:19;19.40;99.90
22430;DHT22;11382;48.086;11.632;2023-07-20T03:00:47;19.30;99.90
22430;DHT22;11382;48.086;11.632;2023-07-20T03:03:15;19.30;99.90
22430;DHT22;11382;48.086;11.632;2023-07-20T03:05:43;19.20;99.90
22430;DHT22;11382;48.086;11.632;2023-07-20T03:08:11;18.90;99.90
22430;DHT22;11382;48.086;11.632;2023-07-20T03:10:39;18.70;99.90
22430;DHT22;11382;48.086;11.632;2023-07-20T03:13:09;18.60;99.90
22430;DHT22;11382;48.086;11.632;2023-07-20T03:15:38;18.50;99.90
22430;DHT22;11382;48.086;11.632;2023-07-20T03:18:06;18.20;99.90
22430;DHT22;11382;48.086;11.632;2023-07-20T03:20:35;18.00;99.90
22430;DHT22;11382;48.086;11.632;2023-07-20T03:23:04;17.90;99.90
22430;DHT22;11382;48.086;11.632;2023-07-20T03:25:32;17.90;99.90
22430;DHT22;11382;48.086;11.632;2023-07-20T03:28:04;17.80;99.90
22430;DHT22;11382;48.086;11.632;2023-07-20T03:30:34;17.80;99.90
22430;DHT22;11382;48.086;11.632;2023-07-20T03:33:03;17.70;99.90
22430;DHT22;11382;48.086;11.632;2023-07-20T03:35:31;17.50;99.90
22430;DHT22;11382;48.086;11.632;2023-07-20T03:37:59;17.40;99.90
22430;DHT22;11382;48.086;11.632;2023-07-20T03:40:27;17.30;99.90
22430;DHT22;11382;48.086;11.632;2023-07-20T03:42:55;17.20;99.90
22430;DHT22;11382;48.086;11.632;2023-07-20T03:45:23;17.10;99.90
22430;DHT22;11382;48.086;11.632;2023-07-20T03:47:53;17.00;99.90
22430;DHT22;11382;48.086;11.632;2023-07-20T03:50:22;16.90;99.90
22430;DHT22;11382;48.086;11.632;2023-07-20T03:52:50;16.90;99.90
22430;DHT22;11382;48.086;11.632;2023-07-20T03:55:19;16.90;99.90
22430;DHT22;11382;48.086;11.632;2023-07-20T03:57:47;16.90;99.90
22430;DHT22;11382;48.086;11.632;2023-07-20T04:00:18;16.80;99.90
22430;DHT22;11382;48.086;11.632;2023-07-20T04:02:46;16.80;99.90
22430;DHT22;11382;48.086;11.632;2023-07-20T04:05:16;16.80;99.90
22430;DHT22;11382;48.086;11.632;2023-07-20T04:07:44;16.80;99.90
22430;DHT22;11382;48.086;11.632;2023-07-20T04:10:11;16.80;99.90
22430;DHT22;11382;48.086;11.632;2023-07-20T04:12:39;16.80;99.90
22430;DHT22;11382;48.086;11.632;2023-07-20T04:15:08;16.80;99.90
22430;DHT22;11382;48.086;11.632;2023-07-20T04:17:36;16.80;99.90
22430;DHT22;11382;48.086;11.632;2023-07-20T04:20:05;16.80;99.90
22430;DHT22;11382;48.086;11.632;2023-07-20T04:22:35;16.90;99.90
22430;DHT22;11382;48.086;11.632;2023-07-20T04:25:05;17.00;99.90
22430;DHT22;11382;48.086;11.632;2023-07-20T04:27:33;17.10;99.90
22430;DHT22;11382;48.086;11.632;2023-07-20T04:30:02;17.10;99.90
22430;DHT22;11382;48.086;11.632;2023-07-20T04:32:30;17.10;99.90
22430;DHT22;11382;48.086;11.632;2023-07-20T04:35:06;17.10;99.90
22430;DHT22;11382;48.086;11.632;2023-07-20T04:37:38;17.10;99.90
22430;DHT22;11382;48.086;11.632;2023-07-20T04:40:16;17.00;99.90
22430;DHT22;11382;48.086;11.632;2023-07-20T04:42:44;17.00;99.90
22430;DHT22;11382;48.086;11.632;2023-07-20T04:45:12;17.00;99.90
22430;DHT22;11382;48.086;11.632;2023-07-20T04:47:40;17.10;99.90
22430;DHT22;11382;48.086;11.632;2023-07-20T04:50:09;17.10;99.90
22430;DHT22;11382;48.086;11.632;2023-07-20T04:52:38;17.20;99.90
22430;DHT22;11382;48.086;11.632;2023-07-20T04:55:13;17.20;99.90
22430;DHT22;11382;48.086;11.632;2023-07-20T04:57:42;17.20;99.90
22430;DHT22;11382;48.086;11.632;2023-07-20T05:00:11;17.30;99.90
22430;DHT22;11382;48.086;11.632;2023-07-20T05:02:40;17.20;99.90
22430;DHT22;11382;48.086;11.632;2023-07-20T05:05:08;17.20;99.90
22430;DHT22;11382;48.086;11.632;2023-07-20T05:07:38;17.20;99.90
22430;DHT22;11382;48.086;11.632;2023-07-20T05:10:07;17.20;99.90
22430;DHT22;11382;48.086;11.632;2023-07-20T05:12:35;17.20;99.90
22430;DHT22;11382;48.086;11.632;2023-07-20T05:15:04;17.20;99.90
22430;DHT22;11382;48.086;11.632;2023-07-20T05:17:32;17.10;99.90
22430;DHT22;11382;48.086;11.632;2023-07-20T05:20:00;17.20;99.90
22430;DHT22;11382;48.086;11.632;2023-07-20T05:22:28;17.30;99.90
22430;DHT22;11382;48.086;11.632;2023-07-20T05:24:58;17.50;99.90
22430;DHT22;11382;48.086;11.632;2023-07-20T05:27:26;17.60;99.90
22430;DHT22;11382;48.086;11.632;2023-07-20T05:29:54;17.70;99.90
22430;DHT22;11382;48.086;11.632;2023-07-20T05:32:22;17.70;99.90
22430;DHT22;11382;48.086;11.632;2023-07-20T05:34:52;17.90;99.90
22430;DHT22;11382;48.086;11.632;2023-07-20T05:37:21;18.00;99.90
22430;DHT22;11382;48.086;11.632;2023-07-20T05:39:49;18.10;99.90
22430;DHT22;11382;48.086;11.632;2023-07-20T05:42:18;18.10;99.90
22430;DHT22;11382;48.086;11.632;2023-07-20T05:44:46;18.00;99.90
22430;DHT22;11382;48.086;11.632;2023-07-20T05:47:16;18.00;99.90
22430;DHT22;11382;48.086;11.632;2023-07-20T05:49:44;18.10;99.90
22430;DHT22;11382;48.086;11.632;2023-07-20T05:52:13;18.30;99.90
22430;DHT22;11382;48.086;11.632;2023-07-20T05:54:41;18.30;99.90
22430;DHT22;11382;48.086;11.632;2023-07-20T05:57:09;18.50;99.90
22430;DHT22;11382;48.086;11.632;2023-07-20T05:59:38;18.70;99.90
22430;DHT22;11382;48.086;11.632;2023-07-20T06:02:07;18.90;99.90
22430;DHT22;11382;48.086;11.632;2023-07-20T06:04:38;19.10;99.90
22430;DHT22;11382;48.086;11.632;2023-07-20T06:07:06;19.30;99.90
22430;DHT22;11382;48.086;11.632;2023-07-20T06:09:35;19.60;99.90
22430;DHT22;11382;48.086;11.632;2023-07-20T06:12:04;19.50;99.90
22430;DHT22;11382;48.086;11.632;2023-07-20T06:14:32;19.50;99.90
22430;DHT22;11382;48.086;11.632;2023-07-20T06:17:02;19.20;99.90
22430;DHT22;11382;48.086;11.632;2023-07-20T06:19:30;19.20;99.90
22430;DHT22;11382;48.086;11.632;2023-07-20T06:21:58;19.30;99.90
22430;DHT22;11382;48.086;11.632;2023-07-20T06:24:27;19.50;99.90
22430;DHT22;11382;48.086;11.632;2023-07-20T06:26:55;19.60;99.90
22430;DHT22;11382;48.086;11.632;2023-07-20T06:29:23;20.00;99.90
22430;DHT22;11382;48.086;11.632;2023-07-20T06:31:51;20.10;99.90
22430;DHT22;11382;48.086;11.632;2023-07-20T06:34:20;20.30;99.90
22430;DHT22;11382;48.086;11.632;2023-07-20T06:36:50;20.50;99.90
22430;DHT22;11382;48.086;11.632;2023-07-20T06:39:18;20.40;99.90
22430;DHT22;11382;48.086;11.632;2023-07-20T06:41:49;20.00;99.90
22430;DHT22;11382;48.086;11.632;2023-07-20T06:44:20;20.10;99.90
22430;DHT22;11382;48.086;11.632;2023-07-20T06:46:48;20.30;99.90
22430;DHT22;11382;48.086;11.632;2023-07-20T06:49:25;20.40;99.90
22430;DHT22;11382;48.086;11.632;2023-07-20T06:51:53;20.30;99.90
22430;DHT22;11382;48.086;11.632;2023-07-20T06:54:21;20.50;99.90
22430;DHT22;11382;48.086;11.632;2023-07-20T06:56:50;20.50;99.90
22430;DHT22;11382;48.086;11.632;2023-07-20T06:59:21;21.00;99.90
22430;DHT22;11382;48.086;11.632;2023-07-20T07:01:49;22.30;99.90
22430;DHT22;11382;48.086;11.632;2023-07-20T07:04:17;24.40;99.90
22430;DHT22;11382;48.086;11.632;2023-07-20T07:06:47;26.50;99.90
22430;DHT22;11382;48.086;11.632;2023-07-20T07:09:15;26.50;99.90
22430;DHT22;11382;48.086;11.632;2023-07-20T07:11:43;25.60;99.90
22430;DHT22;11382;48.086;11.632;2023-07-20T07:14:12;24.30;99.90
22430;DHT22;11382;48.086;11.632;2023-07-20T07:16:40;25.40;99.90
22430;DHT22;11382;48.086;11.632;2023-07-20T07:19:08;26.00;99.20
22430;DHT22;11382;48.086;11.632;2023-07-20T07:21:36;26.30;99.10
22430;DHT22;11382;48.086;11.632;2023-07-20T07:24:06;28.00;97.20
22430;DHT22;11382;48.086;11.632;2023-07-20T07:26:36;30.20;92.60
22430;DHT22;11382;48.086;11.632;2023-07-20T07:29:04;30.70;90.00
22430;DHT22;11382;48.086;11.632;2023-07-20T07:31:34;31.50;86.80
22430;DHT22;11382;48.086;11.632;2023-07-20T07:34:02;32.30;82.40
22430;DHT22;11382;48.086;11.632;2023-07-20T07:36:31;33.00;77.90
22430;DHT22;11382;48.086;11.632;2023-07-20T07:38:59;34.30;72.30
22430;DHT22;11382;48.086;11.632;2023-07-20T07:41:31;33.70;67.80
22430;DHT22;11382;48.086;11.632;2023-07-20T07:43:59;32.70;73.70
22430;DHT22;11382;48.086;11.632;2023-07-20T07:46:27;31.00;72.30
22430;DHT22;11382;48.086;11.632;2023-07-20T07:48:55;29.50;76.70
22430;DHT22;11382;48.086;11.632;2023-07-20T07:51:23;28.50;80.70
22430;DHT22;11382;48.086;11.632;2023-07-20T07:53:51;27.80;83.40
22430;DHT22;11382;48.086;11.632;2023-07-20T07:56:19;27.50;84.60
22430;DHT22;11382;48.086;11.632;2023-07-20T07:58:51;27.40;85.00
22430;DHT22;11382;48.086;11.632;2023-07-20T08:01:20;27.30;86.20
22430;DHT22;11382;48.086;11.632;2023-07-20T08:03:49;27.30;84.40
22430;DHT22;11382;48.086;11.632;2023-07-20T08:06:17;27.90;83.70
22430;DHT22;11382;48.086;11.632;2023-07-20T08:08:45;29.10;77.00
22430;DHT22;11382;48.086;11.632;2023-07-20T08:11:13;28.60;75.20
22430;DHT22;11382;48.086;11.632;2023-07-20T08:13:41;27.60;75.30
22430;DHT22;11382;48.086;11.632;2023-07-20T08:16:11;26.20;80.20
22430;DHT22;11382;48.086;11.632;2023-07-20T08:18:39;25.40;79.50
22430;DHT22;11382;48.086;11.632;2023-07-20T08:21:07;25.30;81.30
22430;DHT22;11382;48.086;11.632;2023-07-20T08:23:35;25.40;81.10
22430;DHT22;11382;48.086;11.632;2023-07-20T08:26:03;26.00;79.70
22430;DHT22;11382;48.086;11.632;2023-07-20T08:28:31;26.20;78.20
22430;DHT22;11382;48.086;11.632;2023-07-20T08:30:59;26.90;80.30
22430;DHT22;11382;48.086;11.632;2023-07-20T08:33:29;28.70;75.00
22430;DHT22;11382;48.086;11.632;2023-07-20T08:36:00;29.00;75.80
22430;DHT22;11382;48.086;11.632;2023-07-20T08:38:30;27.70;76.50
22430;DHT22;11382;48.086;11.632;2023-07-20T08:40:58;27.30;73.60
22430;DHT22;11382;48.086;11.632;2023-07-20T08:43:28;26.90;74.20
22430;DHT22;11382;48.086;11.632;2023-07-20T08:45:58;26.90;73.30
22430;DHT22;11382;48.086;11.632;2023-07-20T08:48:29;27.90;71.50
22430;DHT22;11382;48.086;11.632;2023-07-20T08:50:58;28.00;70.30
22430;DHT22;11382;48.086;11.632;2023-07-20T08:53:28;29.90;67.50
22430;DHT22;11382;48.086;11.632;2023-07-20T08:55:58;30.80;66.60
22430;DHT22;11382;48.086;11.632;2023-07-20T08:58:27;32.30;62.60
22430;DHT22;11382;48.086;11.632;2023-07-20T09:00:56;32.60;60.40
22430;DHT22;11382;48.086;11.632;2023-07-20T09:03:26;33.00;60.70
22430;DHT22;11382;48.086;11.632;2023-07-20T09:05:55;33.10;58.90
22430;DHT22;11382;48.086;11.632;2023-07-20T09:08:23;34.20;58.90
22430;DHT22;11382;48.086;11.632;2023-07-20T09:10:51;35.40;54.80
22430;DHT22;11382;48.086;11.632;2023-07-20T09:13:19;36.30;52.20
22430;DHT22;11382;48.086;11.632;2023-07-20T09:15:53;36.40;53.50
22430;DHT22;11382;48.086;11.632;2023-07-20T09:18:25;37.10;50.50
22430;DHT22;11382;48.086;11.632;2023-07-20T09:20:54;37.80;48.40
22430;DHT22;11382;48.086;11.632;2023-07-20T09:23:31;37.40;47.70
22430;DHT22;11382;48.086;11.632;2023-07-20T09:25:59;38.00;46.40
22430;DHT22;11382;48.086;11.632;2023-07-20T09:28:27;38.20;48.10
22430;DHT22;11382;48.086;11.632;2023-07-20T09:30:55;37.40;47.40
22430;DHT22;11382;48.086;11.632;2023-07-20T09:33:25;34.50;48.40
22430;DHT22;11382;48.086;11.632;2023-07-20T09:36:02;34.30;49.90
22430;DHT22;11382;48.086;11.632;2023-07-20T09:38:50;35.60;49.10
22430;DHT22;11382;48.086;11.632;2023-07-20T09:41:21;34.90;49.40
22430;DHT22;11382;48.086;11.632;2023-07-20T09:43:53;33.30;51.00
22430;DHT22;11382;48.086;11.632;2023-07-20T09:46:22;32.00;53.20
22430;DHT22;11382;48.086;11.632;2023-07-20T09:48:53;32.30;53.50
22430;DHT22;11382;48.086;11.632;2023-07-20T09:51:26;33.80;50.30
22430;DHT22;11382;48.086;11.632;2023-07-20T09:53:54;33.60;51.10
22430;DHT22;11382;48.086;11.632;2023-07-20T09:56:23;33.80;48.40
22430;DHT22;11382;48.086;11.632;2023-07-20T09:58:53;32.70;51.40
22430;DHT22;11382;48.086;11.632;2023-07-20T10:01:21;32.00;52.50
22430;DHT22;11382;48.086;11.632;2023-07-20T10:03:53;30.90;53.70
22430;DHT22;11382;48.086;11.632;2023-07-20T10:06:24;29.90;55.20
22430;DHT22;11382;48.086;11.632;2023-07-20T10:08:56;29.20;57.90
22430;DHT22;11382;48.086;11.632;2023-07-20T10:11:31;29.80;56.70
22430;DHT22;11382;48.086;11.632;2023-07-20T10:14:03;30.00;55.90
22430;DHT22;11382;48.086;11.632;2023-07-20T10:16:35;30.30;56.50
22430;DHT22;11382;48.086;11.632;2023-07-20T10:19:07;30.40;56.40
22430;DHT22;11382;48.086;11.632;2023-07-20T10:21:42;30.30;55.40
22430;DHT22;11382;48.086;11.632;2023-07-20T10:24:23;32.10;56.10
22430;DHT22;11382;48.086;11.632;2023-07-20T10:26:51;33.70;52.90
22430;DHT22;11382;48.086;11.632;2023-07-20T10:29:20;32.40;53.10
22430;DHT22;11382;48.086;11.632;2023-07-20T10:31:48;31.50;54.20
22430;DHT22;11382;48.086;11.632;2023-07-20T10:34:19;31.30;55.70
22430;DHT22;11382;48.086;11.632;2023-07-20T10:36:48;33.80;53.40
22430;DHT22;11382;48.086;11.632;2023-07-20T10:39:24;35.70;49.60
22430;DHT22;11382;48.086;11.632;2023-07-20T10:42:01;36.10;48.30
22430;DHT22;11382;48.086;11.632;2023-07-20T10:44:30;36.20;47.60
22430;DHT22;11382;48.086;11.632;2023-07-20T10:47:01;37.00;48.20
22430;DHT22;11382;48.086;11.632;2023-07-20T10:49:33;37.70;46.70
22430;DHT22;11382;48.086;11.632;2023-07-20T10:52:04;38.00;46.50
22430;DHT22;11382;48.086;11.632;2023-07-20T10:54:49;38.20;45.20
22430;DHT22;11382;48.086;11.632;2023-07-20T10:57:30;38.30;44.70
22430;DHT22;11382;48.086;11.632;2023-07-20T11:00:10;39.10;44.10
22430;DHT22;11382;48.086;11.632;2023-07-20T11:02:43;39.80;43.60
22430;DHT22;11382;48.086;11.632;2023-07-20T11:05:34;37.50;45.40
22430;DHT22;11382;48.086;11.632;2023-07-20T11:08:09;35.60;48.40
22430;DHT22;11382;48.086;11.632;2023-07-20T11:10:39;35.10;47.30
22430;DHT22;11382;48.086;11.632;2023-07-20T11:13:21;34.10;48.60
22430;DHT22;11382;48.086;11.632;2023-07-20T11:16:05;34.20;48.40
22430;DHT22;11382;48.086;11.632;2023-07-20T11:18:34;34.40;50.00
22430;DHT22;11382;48.086;11.632;2023-07-20T11:21:09;35.00;49.60
22430;DHT22;11382;48.086;11.632;2023-07-20T11:23:39;36.00;46.50
22430;DHT22;11382;48.086;11.632;2023-07-20T11:26:09;33.20;48.20
22430;DHT22;11382;48.086;11.632;2023-07-20T11:28:39;31.70;51.40
22430;DHT22;11382;48.086;11.632;2023-07-20T11:31:07;33.50;51.10
22430;DHT22;11382;48.086;11.632;2023-07-20T11:33:35;33.90;50.30
22430;DHT22;11382;48.086;11.632;2023-07-20T11:36:03;34.40;49.70
22430;DHT22;11382;48.086;11.632;2023-07-20T11:38:52;34.90;48.30
22430;DHT22;11382;48.086;11.632;2023-07-20T11:41:22;34.20;47.30
22430;DHT22;11382;48.086;11.632;2023-07-20T11:43:50;33.30;49.80
22430;DHT22;11382;48.086;11.632;2023-07-20T11:46:18;33.00;50.90
22430;DHT22;11382;48.086;11.632;2023-07-20T11:48:46;32.60;50.30
22430;DHT22;11382;48.086;11.632;2023-07-20T11:51:15;33.90;49.40
22430;DHT22;11382;48.086;11.632;2023-07-20T11:53:44;35.00;49.10
22430;DHT22;11382;48.086;11.632;2023-07-20T11:56:13;34.90;48.20
22430;DHT22;11382;48.086;11.632;2023-07-20T11:58:43;34.50;49.80
22430;DHT22;11382;48.086;11.632;2023-07-20T12:01:12;34.70;48.00
22430;DHT22;11382;48.086;11.632;2023-07-20T12:03:42;33.40;48.40
22430;DHT22;11382;48.086;11.632;2023-07-20T12:06:10;31.70;52.70
22430;DHT22;11382;48.086;11.632;2023-07-20T12:08:39;30.80;54.30
22430;DHT22;11382;48.086;11.632;2023-07-20T12:11:08;29.80;55.60
22430;DHT22;11382;48.086;11.632;2023-07-20T12:13:42;28.80;58.30
22430;DHT22;11382;48.086;11.632;2023-07-20T12:16:15;28.50;57.80
22430;DHT22;11382;48.086;11.632;2023-07-20T12:18:44;28.00;58.10
22430;DHT22;11382;48.086;11.632;2023-07-20T12:21:12;27.70;58.80
22430;DHT22;11382;48.086;11.632;2023-07-20T12:23:41;27.50;59.60
22430;DHT22;11382;48.086;11.632;2023-07-20T12:26:10;27.80;59.80
22430;DHT22;11382;48.086;11.632;2023-07-20T12:28:41;28.10;59.60
22430;DHT22;11382;48.086;11.632;2023-07-20T12:31:10;27.60;59.50
22430;DHT22;11382;48.086;11.632;2023-07-20T12:33:41;27.40;61.30
22430;DHT22;11382;48.086;11.632;2023-07-20T12:36:09;27.10;59.60
22430;DHT22;11382;48.086;11.632;2023-07-20T12:38:38;27.30;59.80
22430;DHT22;11382;48.086;11.632;2023-07-20T12:41:06;27.20;59.00
22430;DHT22;11382;48.086;11.632;2023-07-20T12:43:34;27.00;58.80
22430;DHT22;11382;48.086;11.632;2023-07-20T12:46:02;27.00;61.30
22430;DHT22;11382;48.086;11.632;2023-07-20T12:48:30;27.00;61.00
22430;DHT22;11382;48.086;11.632;2023-07-20T12:50:59;27.20;61.70
22430;DHT22;11382;48.086;11.632;2023-07-20T12:53:27;27.30;61.30
22430;DHT22;11382;48.086;11.632;2023-07-20T12:55:55;27.30;60.50
22430;DHT22;11382;48.086;11.632;2023-07-20T12:58:23;26.90;60.50
22430;DHT22;11382;48.086;11.632;2023-07-20T13:00:51;26.90;62.10
22430;DHT22;11382;48.086;11.632;2023-07-20T13:03:20;26.90;63.30
22430;DHT22;11382;48.086;11.632;2023-07-20T13:05:50;26.80;62.10
22430;DHT22;11382;48.086;11.632;2023-07-20T13:08:23;26.70;61.80
22430;DHT22;11382;48.086;11.632;2023-07-20T13:10:52;26.70;62.90
22430;DHT22;11382;48.086;11.632;2023-07-20T13:13:20;26.70;61.80
22430;DHT22;11382;48.086;11.632;2023-07-20T13:15:48;26.70;63.10
22430;DHT22;11382;48.086;11.632;2023-07-20T13:18:17;26.70;62.30
22430;DHT22;11382;48.086;11.632;2023-07-20T13:20:45;26.70;63.90
22430;DHT22;11382;48.086;11.632;2023-07-20T13:23:13;26.60;63.80
22430;DHT22;11382;48.086;11.632;2023-07-20T13:25:43;27.00;65.00
22430;DHT22;11382;48.086;11.632;2023-07-20T13:28:11;27.60;64.20
22430;DHT22;11382;48.086;11.632;2023-07-20T13:30:39;27.90;62.60
22430;DHT22;11382;48.086;11.632;2023-07-20T13:33:07;27.70;60.50
22430;DHT22;11382;48.086;11.632;2023-07-20T13:35:39;27.60;60.70
22430;DHT22;11382;48.086;11.632;2023-07-20T13:38:11;27.70;60.90
22430;DHT22;11382;48.086;11.632;2023-07-20T13:40:39;27.50;60.60
22430;DHT22;11382;48.086;11.632;2023-07-20T13:43:08;27.30;60.80
22430;DHT22;11382;48.086;11.632;2023-07-20T13:45:37;27.40;59.80
22430;DHT22;11382;48.086;11.632;2023-07-20T13:48:06;27.60;59.20
22430;DHT22;11382;48.086;11.632;2023-07-20T13:50:34;27.40;61.50
22430;DHT22;11382;48.086;11.632;2023-07-20T13:53:05;27.50;60.20
22430;DHT22;11382;48.086;11.632;2023-07-20T13:55:36;27.30;60.10
22430;DHT22;11382;48.086;11.632;2023-07-20T13:58:09;27.30;61.20
22430;DHT22;11382;48.086;11.632;2023-07-20T14:00:39;27.40;61.40
22430;DHT22;11382;48.086;11.632;2023-07-20T14:03:07;27.30;61.90
22430;DHT22;11382;48.086;11.632;2023-07-20T14:05:39;27.20;62.00
22430;DHT22;11382;48.086;11.632;2023-07-20T14:08:10;27.30;61.40
22430;DHT22;11382;48.086;11.632;2023-07-20T14:10:38;27.40;60.90
22430;DHT22;11382;48.086;11.632;2023-07-20T14:13:10;27.60;60.70
22430;DHT22;11382;48.086;11.632;2023-07-20T14:15:38;27.70;61.40
22430;DHT22;11382;48.086;11.632;2023-07-20T14:18:06;27.30;61.00
22430;DHT22;11382;48.086;11.632;2023-07-20T14:20:35;27.10;60.80
22430;DHT22;11382;48.086;11.632;2023-07-20T14:23:05;27.50;63.10
22430;DHT22;11382;48.086;11.632;2023-07-20T14:25:33;27.50;58.30
22430;DHT22;11382;48.086;11.632;2023-07-20T14:28:04;27.60;60.30
22430;DHT22;11382;48.086;11.632;2023-07-20T14:30:33;27.60;59.10
22430;DHT22;11382;48.086;11.632;2023-07-20T14:33:01;27.20;57.20
22430;DHT22;11382;48.086;11.632;2023-07-20T14:35:30;27.50;60.60
22430;DHT22;11382;48.086;11.632;2023-07-20T14:37:58;27.60;60.00
22430;DHT22;11382;48.086;11.632;2023-07-20T14:40:26;27.70;59.50
22430;DHT22;11382;48.086;11.632;2023-07-20T14:42:54;27.50;58.80
22430;DHT22;11382;48.086;11.632;2023-07-20T14:45:22;27.30;58.70
22430;DHT22;11382;48.086;11.632;2023-07-20T14:47:52;27.30;60.90
22430;DHT22;11382;48.086;11.632;2023-07-20T14:50:21;27.30;59.90
22430;DHT22;11382;48.086;11.632;2023-07-20T14:52:49;27.30;59.50
22430;DHT22;11382;48.086;11.632;2023-07-20T14:55:17;27.20;58.70
22430;DHT22;11382;48.086;11.632;2023-07-20T14:57:45;27.10;59.70
22430;DHT22;11382;48.086;11.632;2023-07-20T15:00:15;27.10;62.30
22430;DHT22;11382;48.086;11.632;2023-07-20T15:02:43;26.90;62.00
22430;DHT22;11382;48.086;11.632;2023-07-20T15:05:20;26.90;61.60
22430;DHT22;11382;48.086;11.632;2023-07-20T15:07:48;26.60;59.80
22430;DHT22;11382;48.086;11.632;2023-07-20T15:10:16;26.50;62.10
22430;DHT22;11382;48.086;11.632;2023-07-20T15:12:45;26.60;61.60
22430;DHT22;11382;48.086;11.632;2023-07-20T15:15:14;26.40;59.70
22430;DHT22;11382;48.086;11.632;2023-07-20T15:17:43;26.50;61.70
22430;DHT22;11382;48.086;11.632;2023-07-20T15:20:13;26.60;61.80
22430;DHT22;11382;48.086;11.632;2023-07-20T15:22:41;26.50;62.90
22430;DHT22;11382;48.086;11.632;2023-07-20T15:25:12;26.40;63.20
22430;DHT22;11382;48.086;11.632;2023-07-20T15:27:40;26.50;62.80
22430;DHT22;11382;48.086;11.632;2023-07-20T15:30:16;26.40;62.60
22430;DHT22;11382;48.086;11.632;2023-07-20T15:32:47;26.10;62.70